Map

Track Data

SID SEASON NUMBER BASIN SUBBASIN NAME ISO_TIME NATURE LAT LON WMO_WIND WMO_PRES WMO_AGENCY TRACK_TYPE DIST2LAND LANDFALL IFLAG USA_AGENCY USA_ATCF_ID USA_LAT USA_LON USA_RECORD USA_STATUS USA_WIND USA_PRES USA_SSHS USA_R34_NE USA_R34_SE USA_R34_SW USA_R34_NW USA_R50_NE USA_R50_SE USA_R50_SW USA_R50_NW USA_R64_NE USA_R64_SE USA_R64_SW USA_R64_NW USA_POCI USA_ROCI USA_RMW USA_EYE TOKYO_LAT TOKYO_LON TOKYO_GRADE TOKYO_WIND TOKYO_PRES TOKYO_R50_DIR TOKYO_R50_LONG TOKYO_R50_SHORT TOKYO_R30_DIR TOKYO_R30_LONG TOKYO_R30_SHORT TOKYO_LAND CMA_LAT CMA_LON CMA_CAT CMA_WIND CMA_PRES HKO_LAT HKO_LON HKO_CAT HKO_WIND HKO_PRES NEWDELHI_LAT NEWDELHI_LON NEWDELHI_GRADE NEWDELHI_WIND NEWDELHI_PRES NEWDELHI_CI NEWDELHI_DP NEWDELHI_POCI REUNION_LAT REUNION_LON REUNION_TYPE REUNION_WIND REUNION_PRES REUNION_TNUM REUNION_CI REUNION_RMW REUNION_R34_NE REUNION_R34_SE REUNION_R34_SW REUNION_R34_NW REUNION_R50_NE REUNION_R50_SE REUNION_R50_SW REUNION_R50_NW REUNION_R64_NE REUNION_R64_SE REUNION_R64_SW REUNION_R64_NW BOM_LAT BOM_LON BOM_TYPE BOM_WIND BOM_PRES BOM_TNUM BOM_CI BOM_RMW BOM_R34_NE BOM_R34_SE BOM_R34_SW BOM_R34_NW BOM_R50_NE BOM_R50_SE BOM_R50_SW BOM_R50_NW BOM_R64_NE BOM_R64_SE BOM_R64_SW BOM_R64_NW BOM_ROCI BOM_POCI BOM_EYE BOM_POS_METHOD BOM_PRES_METHOD NADI_LAT NADI_LON NADI_CAT NADI_WIND NADI_PRES WELLINGTON_LAT WELLINGTON_LON WELLINGTON_WIND WELLINGTON_PRES DS824_LAT DS824_LON DS824_STAGE DS824_WIND DS824_PRES TD9636_LAT TD9636_LON TD9636_STAGE TD9636_WIND TD9636_PRES TD9635_LAT TD9635_LON TD9635_WIND TD9635_PRES TD9635_ROCI NEUMANN_LAT NEUMANN_LON NEUMANN_CLASS NEUMANN_WIND NEUMANN_PRES MLC_LAT MLC_LON MLC_CLASS MLC_WIND MLC_PRES USA_GUST BOM_GUST BOM_GUST_PER REUNION_GUST REUNION_GUST_PER USA_SEAHGT USA_SEARAD_NE USA_SEARAD_SE USA_SEARAD_SW USA_SEARAD_NW STORM_SPEED STORM_DIR
1884251N20089 1884 32 NI BB NOT_NAMED 1884-09-07 00:00:00 TS 20.3000 88.9000 main 145 145 _________O____ -1 20.3000 88.9000 TC 30 0 0
1884251N20089 1884 32 NI BB NOT_NAMED 1884-09-07 03:00:00 TS 20.3000 88.9000 main 145 145 _________PO___ -1 20.3000 88.9000 TC 30 20.3000 88.9000 1 0 0
1884251N20089 1884 32 NI BB NOT_NAMED 1884-09-07 06:00:00 TS 20.3013 88.8913 main 145 145 _________OP___ -1 20.3000 88.9000 TC 30 20.3032 88.8782 1 0 0
1884251N20089 1884 32 NI BB NOT_NAMED 1884-09-07 09:00:00 TS 20.3022 88.8850 main 145 145 _________PP___ -1 20.3000 88.9000 TC 30 20.3051 88.8651 1 0 0
1884251N20089 1884 32 NI BB NOT_NAMED 1884-09-07 12:00:00 TS 20.3022 88.8847 main 145 145 _________OP___ -1 20.3000 88.9000 TC 30 20.3045 88.8694 1 0 0
1884251N20089 1884 32 NI BB NOT_NAMED 1884-09-07 15:00:00 TS 20.3000 88.9000 main 145 145 _________PO___ -1 20.3000 88.9000 TC 30 20.3000 88.9000 1 0 99
1884251N20089 1884 32 NI BB NOT_NAMED 1884-09-07 18:00:00 TS 20.2958 88.9284 main 145 145 _________OP___ -1 20.3000 88.9000 TC 30 20.2916 88.9568 1 1 100
1884251N20089 1884 32 NI BB NOT_NAMED 1884-09-07 21:00:00 TS 20.2885 88.9712 main 145 145 _________PP___ -1 20.2924 88.9375 TC 30 20.2846 89.0048 1 0 0
1884251N20089 1884 32 NI BB NOT_NAMED 1884-09-08 00:00:00 TS 20.2926 88.9502 main 145 145 _________OP___ -1 20.3000 88.9000 TC 30 20.2852 89.0005 1 2 282
1884251N20089 1884 32 NI BB NOT_NAMED 1884-09-08 03:00:00 TS 20.3212 88.8087 main 145 134 _________PO___ -1 20.3424 88.7175 TC 30 20.3000 88.9000 1 4 281
1884251N20089 1884 32 NI BB NOT_NAMED 1884-09-08 06:00:00 TS 20.3659 88.5294 main 134 129 _________OP___ -1 20.4000 88.4000 TC 30 20.3318 88.6588 1 6 279
1884251N20089 1884 32 NI BB NOT_NAMED 1884-09-08 09:00:00 TS 20.4140 88.1462 main 119 76 _________PP___ -1 20.4501 87.9725 TC 30 20.3778 88.3200 1 8 278
1884251N20089 1884 32 NI BB NOT_NAMED 1884-09-08 12:00:00 TS 20.4674 87.7106 main 76 38 _________OP___ -1 20.5000 87.5000 TC 30 20.4349 87.9212 1 8 278
1884251N20089 1884 32 NI BB NOT_NAMED 1884-09-08 15:00:00 TS 20.5212 87.2962 main 38 0 _________PO___ -1 20.5424 87.0924 TC 30 20.5000 87.5000 1 8 279
1884251N20089 1884 32 NI BB NOT_NAMED 1884-09-08 18:00:00 TS 20.5820 86.8970 main 0 0 _________OP___ -1 20.6000 86.7000 TC 30 20.5639 87.0941 1 8 281
1884251N20089 1884 32 NI BB NOT_NAMED 1884-09-08 21:00:00 TS 20.6639 86.4813 main 0 0 _________PP___ -1 20.6925 86.2850 TC 30 20.6353 86.6775 1 8 283
1884251N20089 1884 32 NI BB NOT_NAMED 1884-09-09 00:00:00 TS 20.7570 86.0861 main 0 0 _________OP___ -1 20.8000 85.9000 TC 30 20.7140 86.2722 1 7 285
1884251N20089 1884 32 NI BB NOT_NAMED 1884-09-09 03:00:00 TS 20.8499 85.7387 main 0 0 _________PO___ -1 20.8999 85.5775 TC 30 20.8000 85.9000 1 6 287
1884251N20089 1884 32 NI BB NOT_NAMED 1884-09-09 06:00:00 TS 20.9462 85.4445 main 0 0 _________OP___ -1 21.0000 85.3000 TC 30 20.8923 85.5889 1 6 290
1884251N20089 1884 32 NI BB NOT_NAMED 1884-09-09 09:00:00 TS 21.0459 85.1774 main 0 0 _________PP___ -1 21.0999 85.0425 TC 30 20.9919 85.3123 1 5 293
1884251N20089 1884 32 NI BB NOT_NAMED 1884-09-09 12:00:00 TS 21.1478 84.9273 main 0 0 _________OP___ -1 21.2000 84.8000 TC 30 21.0955 85.0546 1 5 294
1884251N20089 1884 32 NI BB NOT_NAMED 1884-09-09 15:00:00 TS 21.2500 84.6787 main 0 0 _________PO___ -1 21.2999 84.5575 TC 30 21.2000 84.8000 1 5 293
1884251N20089 1884 32 NI BB NOT_NAMED 1884-09-09 18:00:00 TS 21.3499 84.4145 main 0 0 _________OP___ -1 21.4000 84.3000 TC 30 21.2998 84.5289 1 5 291
1884251N20089 1884 32 NI BB NOT_NAMED 1884-09-09 21:00:00 TS 21.4499 84.1324 main 0 0 _________PP___ -1 21.5000 84.0075 TC 30 21.3997 84.2573 1 6 291
1884251N20089 1884 32 NI BB NOT_NAMED 1884-09-10 00:00:00 TS 21.5499 83.8410 main 0 0 _________OP___ -1 21.6000 83.7000 TC 30 21.4998 83.9820 1 6 290
1884251N20089 1884 32 NI BB NOT_NAMED 1884-09-10 03:00:00 TS 21.6500 83.5500 main 0 0 _________PO___ -1 21.6999 83.4000 TC 30 21.6000 83.7000 1 6 290
1884251N20089 1884 32 NI BB NOT_NAMED 1884-09-10 06:00:00 TS 21.7500 83.2515 main 0 0 _________OP___ -1 21.8000 83.1000 TC 30 21.7000 83.4030 1 6 290
1884251N20089 1884 32 NI BB NOT_NAMED 1884-09-10 09:00:00 TS 21.8499 82.9499 main 0 0 _________PP___ -1 21.8999 82.8000 TC 30 21.7999 83.0999 1 6 290
1884251N20089 1884 32 NI BB NOT_NAMED 1884-09-10 12:00:00 TS 21.9500 82.6484 main 0 0 _________OP___ -1 22.0000 82.5000 TC 30 21.9000 82.7968 1 6 290
1884251N20089 1884 32 NI BB NOT_NAMED 1884-09-10 15:00:00 TS 22.0500 82.3462 main 0 0 _________PO___ -1 22.1000 82.1925 TC 30 22.0000 82.5000 1 6 290
1884251N20089 1884 32 NI BB NOT_NAMED 1884-09-10 18:00:00 TS 22.1429 82.0796 main 0 0 _________OP___ -1 22.2000 81.9000 TC 30 22.1001 82.2142 1 5 291
1884251N20089 1884 32 NI BB NOT_NAMED 1884-09-10 21:00:00 TS 22.2402 81.8187 main 0 0 _________PP___ -1 22.3000 81.6401 TC 30 22.2003 81.9378 1 5 292
1884251N20089 1884 32 NI BB NOT_NAMED 1884-09-11 00:00:00 TS 22.3335 81.5783 main 0 0 _________OP___ -1 22.4000 81.4000 TC 30 22.3003 81.6674 1 4 292
1884251N20089 1884 32 NI BB NOT_NAMED 1884-09-11 03:00:00 NR 22.4000 81.4000 main 0 __________O___ -1 TC 22.4000 81.4000 1 4 292

About IBTrACS Database

This database is a web-friendly format of International Best Track Archive for Climate Stewardship (IBTrACS), a global best track data archive curated by NOAA dating back to 1842.

Updated: 2021-12-01